Time;durP1;ratioP1;P1;durP2;ratioP2;P2;SDS_P1;SDS_P2;PMS_P1;PMS_P2;Temp;Humidity;BMP_temperature;BMP_pressure;BME280_temperature;BME280_humidity;BME280_pressure;Samples;Min_cycle;Max_cycle;Signal;HPM_P1;HPM_P2
2020/12/24 00:02:15;;;;;;;1.00;0.50;;;10.30;99.90;;;;;;4966151;28;20209;-86
2020/12/24 00:04:41;;;;;;;0.60;0.40;;;10.30;99.90;;;;;;4957717;28;20557;-87
2020/12/24 00:07:07;;;;;;;0.70;0.40;;;10.30;99.90;;;;;;4967168;28;20194;-87
2020/12/24 00:09:33;;;;;;;0.50;0.40;;;10.30;99.90;;;;;;4962959;28;20922;-87
2020/12/24 00:11:59;;;;;;;1.27;0.70;;;10.20;99.90;;;;;;4968742;28;20487;-87
2020/12/24 00:14:25;;;;;;;0.60;0.57;;;10.30;99.90;;;;;;4968529;28;20197;-88
2020/12/24 00:16:50;;;;;;;0.60;0.60;;;10.30;99.90;;;;;;4964360;28;20191;-88
2020/12/24 00:19:16;;;;;;;0.30;0.30;;;10.20;99.90;;;;;;4963600;28;20278;-89
2020/12/24 00:21:42;;;;;;;1.90;0.43;;;10.30;99.90;;;;;;4963514;28;20617;-89
2020/12/24 00:24:08;;;;;;;1.37;0.70;;;10.30;99.90;;;;;;4970470;28;20471;-88
2020/12/24 00:26:33;;;;;;;0.40;0.40;;;10.30;99.90;;;;;;4971705;28;20198;-88
2020/12/24 00:28:59;;;;;;;1.20;0.60;;;10.30;99.90;;;;;;4970344;28;20679;-87
2020/12/24 00:31:25;;;;;;;1.10;0.57;;;10.20;99.90;;;;;;4966536;28;20222;-88
2020/12/24 00:33:51;;;;;;;0.97;0.30;;;10.20;99.90;;;;;;4970638;28;20230;-89
2020/12/24 00:36:17;;;;;;;1.10;0.47;;;10.20;99.90;;;;;;4965966;28;20200;-87
2020/12/24 00:38:43;;;;;;;0.47;0.43;;;10.20;99.90;;;;;;4965328;28;20453;-88
2020/12/24 00:41:10;;;;;;;0.60;0.50;;;10.10;99.90;;;;;;4963692;28;20198;-88
2020/12/24 00:43:36;;;;;;;0.73;0.50;;;10.20;99.90;;;;;;4968979;28;20181;-87
2020/12/24 00:46:01;;;;;;;2.30;0.90;;;10.10;99.90;;;;;;4957263;28;20811;-88
2020/12/24 00:48:27;;;;;;;1.67;0.90;;;10.20;99.90;;;;;;4954112;28;20527;-88
2020/12/24 00:50:53;;;;;;;1.00;0.67;;;10.20;99.90;;;;;;4960191;28;20225;-87
2020/12/24 00:53:18;;;;;;;0.53;0.50;;;10.20;99.90;;;;;;4965722;28;20194;-87
2020/12/24 00:55:44;;;;;;;0.50;0.50;;;10.20;99.90;;;;;;4964820;28;20198;-88
2020/12/24 00:58:10;;;;;;;1.50;0.80;;;10.10;99.90;;;;;;4971442;28;20200;-88
2020/12/24 01:00:35;;;;;;;0.73;0.40;;;10.00;99.90;;;;;;4957299;28;20656;-88
2020/12/24 01:03:01;;;;;;;0.37;0.37;;;10.10;99.90;;;;;;4963471;28;20186;-88
2020/12/24 01:05:26;;;;;;;1.50;0.60;;;10.10;99.90;;;;;;4964629;28;20197;-87
2020/12/24 01:07:52;;;;;;;0.50;0.50;;;10.10;99.90;;;;;;4961054;28;20273;-88
2020/12/24 01:10:18;;;;;;;0.70;0.50;;;10.10;99.90;;;;;;4967881;28;20201;-88
2020/12/24 01:12:44;;;;;;;0.40;0.40;;;10.00;99.90;;;;;;4958880;28;20453;-88
2020/12/24 01:15:11;;;;;;;1.53;0.63;;;10.00;99.90;;;;;;4963580;28;20905;-87
2020/12/24 01:17:37;;;;;;;1.37;0.60;;;10.00;99.90;;;;;;4963611;28;20836;-88
2020/12/24 01:20:04;;;;;;;1.60;0.30;;;10.00;99.90;;;;;;4965592;28;20914;-88
2020/12/24 01:22:31;;;;;;;0.87;0.50;;;10.00;99.90;;;;;;4961274;28;20450;-88
2020/12/24 01:24:56;;;;;;;0.43;0.40;;;9.90;99.90;;;;;;4964244;28;21087;-88
2020/12/24 01:27:22;;;;;;;1.10;0.40;;;9.90;99.90;;;;;;4958214;28;20541;-88
2020/12/24 01:29:48;;;;;;;0.40;0.40;;;9.90;99.90;;;;;;4958801;28;20206;-89
2020/12/24 01:32:13;;;;;;;0.57;0.40;;;9.90;99.90;;;;;;4958254;28;20218;-88
2020/12/24 01:34:39;;;;;;;0.90;0.90;;;9.90;99.90;;;;;;4960844;28;20205;-88
2020/12/24 01:37:05;;;;;;;0.57;0.40;;;9.80;99.90;;;;;;4965235;28;20198;-87
2020/12/24 01:39:30;;;;;;;0.67;0.40;;;9.80;99.90;;;;;;4962439;28;20201;-87
2020/12/24 01:41:56;;;;;;;1.80;0.40;;;9.80;99.90;;;;;;4963874;28;20277;-88
2020/12/24 01:44:22;;;;;;;0.30;0.30;;;9.70;99.90;;;;;;4966075;28;21135;-89
2020/12/24 01:46:49;;;;;;;1.03;0.50;;;9.70;99.90;;;;;;4962087;28;20213;-87
2020/12/24 01:49:18;;;;;;;0.40;0.30;;;9.70;99.90;;;;;;4970539;28;20463;-89
2020/12/24 01:51:55;;;;;;;0.40;0.40;;;9.70;99.90;;;;;;4963171;28;20476;-88
2020/12/24 01:54:24;;;;;;;1.13;0.50;;;9.70;99.90;;;;;;4964211;28;20446;-88
2020/12/24 01:56:50;;;;;;;0.37;0.30;;;9.60;99.90;;;;;;4965282;28;20524;-89
2020/12/24 01:59:17;;;;;;;0.40;0.30;;;9.60;99.90;;;;;;4966464;28;20505;-88
2020/12/24 02:01:47;;;;;;;0.70;0.40;;;9.70;99.90;;;;;;4969204;28;20185;-87
2020/12/24 02:04:14;;;;;;;0.50;0.40;;;9.60;99.90;;;;;;4966056;28;20964;-88
2020/12/24 02:06:41;;;;;;;0.40;0.30;;;9.60;99.90;;;;;;4967648;28;20450;-88
2020/12/24 02:09:08;;;;;;;0.30;0.20;;;9.60;99.90;;;;;;4966297;28;20455;-87
2020/12/24 02:11:34;;;;;;;0.40;0.23;;;9.50;99.90;;;;;;4967507;28;20535;-88
2020/12/24 02:14:00;;;;;;;1.67;0.40;;;9.50;99.90;;;;;;4965354;28;20464;-88
2020/12/24 02:16:26;;;;;;;1.10;0.30;;;9.40;99.90;;;;;;4960688;28;20549;-87
2020/12/24 02:18:52;;;;;;;0.40;0.30;;;9.40;99.90;;;;;;4961836;28;20521;-88
2020/12/24 02:21:18;;;;;;;1.03;0.50;;;9.20;99.90;;;;;;4960311;28;20817;-88
2020/12/24 02:23:44;;;;;;;1.17;0.50;;;9.10;99.90;;;;;;4956965;28;20884;-88
2020/12/24 02:26:09;;;;;;;2.00;0.67;;;9.00;99.90;;;;;;4964558;28;20296;-87
2020/12/24 02:28:35;;;;;;;0.93;0.50;;;9.00;99.90;;;;;;4968664;28;20227;-87
2020/12/24 02:31:02;;;;;;;0.93;0.30;;;8.90;99.90;;;;;;4961393;28;21484;-87
2020/12/24 02:33:28;;;;;;;0.50;0.30;;;8.90;99.90;;;;;;4971786;28;20232;-87
2020/12/24 02:35:54;;;;;;;1.27;0.40;;;8.90;99.90;;;;;;4955982;28;20558;-87
2020/12/24 02:38:19;;;;;;;0.87;0.33;;;8.80;99.90;;;;;;4957437;28;20983;-86
2020/12/24 02:40:45;;;;;;;0.73;0.30;;;8.80;99.90;;;;;;4979138;28;20450;-87
2020/12/24 02:43:11;;;;;;;1.30;0.27;;;8.80;99.90;;;;;;4959628;28;20212;-87
2020/12/24 02:45:36;;;;;;;1.47;1.27;;;8.70;99.90;;;;;;4969925;28;20666;-88
2020/12/24 02:48:03;;;;;;;0.90;0.27;;;8.70;99.90;;;;;;4957183;28;20210;-87
2020/12/24 02:50:28;;;;;;;0.60;0.53;;;8.60;99.90;;;;;;4960828;28;20239;-87
2020/12/24 02:52:54;;;;;;;0.93;0.50;;;8.60;99.90;;;;;;4960974;28;20835;-87
2020/12/24 02:55:20;;;;;;;0.83;0.30;;;8.50;99.90;;;;;;4962379;28;20653;-88
2020/12/24 02:57:45;;;;;;;0.33;0.33;;;8.40;99.90;;;;;;4964181;28;20183;-87
2020/12/24 03:00:12;;;;;;;0.40;0.30;;;8.40;99.90;;;;;;4959070;28;20183;-89
2020/12/24 03:02:41;;;;;;;1.13;0.23;;;8.40;99.90;;;;;;4958846;28;20282;-89
2020/12/24 03:05:07;;;;;;;0.77;0.40;;;8.40;99.90;;;;;;4962505;28;20459;-88
2020/12/24 03:07:32;;;;;;;0.40;0.30;;;8.30;99.90;;;;;;4961248;28;20482;-88
2020/12/24 03:09:58;;;;;;;0.73;0.37;;;8.30;99.90;;;;;;4962047;28;20625;-89
2020/12/24 03:12:25;;;;;;;1.80;0.33;;;8.30;99.90;;;;;;4968933;28;20221;-88
2020/12/24 03:14:51;;;;;;;1.03;0.40;;;8.30;99.90;;;;;;4957624;28;20469;-89
2020/12/24 03:17:19;;;;;;;2.13;0.50;;;8.30;99.90;;;;;;4955089;28;20473;-89
2020/12/24 03:19:44;;;;;;;0.80;0.30;;;8.30;99.90;;;;;;4957721;28;20485;-89
2020/12/24 03:22:10;;;;;;;0.30;0.20;;;8.30;99.90;;;;;;4965726;28;20454;-89
2020/12/24 03:24:36;;;;;;;0.40;0.40;;;8.30;99.90;;;;;;4966184;28;20247;-89
2020/12/24 03:27:02;;;;;;;0.57;0.50;;;8.30;99.90;;;;;;4968547;28;20194;-89
2020/12/24 03:29:27;;;;;;;0.30;0.20;;;8.20;99.90;;;;;;4962939;28;20225;-89
2020/12/24 03:31:53;;;;;;;0.40;0.30;;;8.20;99.90;;;;;;4957320;28;20516;-89
2020/12/24 03:34:19;;;;;;;1.67;1.20;;;8.20;99.90;;;;;;4971236;28;20187;-88
2020/12/24 03:36:44;;;;;;;1.73;0.97;;;8.20;99.90;;;;;;4966580;28;20245;-88
2020/12/24 03:39:10;;;;;;;0.80;0.40;;;8.10;99.90;;;;;;4970482;28;20193;-89
2020/12/24 03:41:36;;;;;;;1.13;0.33;;;8.10;99.90;;;;;;4964197;28;20893;-88
2020/12/24 03:44:01;;;;;;;1.33;0.40;;;8.00;99.90;;;;;;4964651;28;20661;-89
2020/12/24 03:46:30;;;;;;;1.80;0.90;;;8.00;99.90;;;;;;4963747;28;20669;-88
2020/12/24 03:48:55;;;;;;;0.67;0.30;;;8.00;99.90;;;;;;4960673;28;20280;-88
2020/12/24 03:51:21;;;;;;;0.60;0.30;;;8.00;99.90;;;;;;4962880;28;20493;-87
2020/12/24 03:53:47;;;;;;;0.40;0.30;;;7.90;99.90;;;;;;4967936;28;20203;-87
2020/12/24 03:56:12;;;;;;;2.20;0.47;;;8.00;99.90;;;;;;4967935;28;20715;-87
2020/12/24 03:58:39;;;;;;;0.63;0.30;;;8.00;99.90;;;;;;4966399;28;20604;-87
2020/12/24 04:01:05;;;;;;;1.47;0.57;;;8.00;99.90;;;;;;4968045;28;20714;-86
2020/12/24 04:03:31;;;;;;;1.07;0.40;;;7.90;99.90;;;;;;4962214;28;20456;-87
2020/12/24 04:05:59;;;;;;;0.60;0.50;;;7.90;99.90;;;;;;4964735;28;20455;-87
2020/12/24 04:08:24;;;;;;;0.73;0.40;;;7.90;99.90;;;;;;4961958;28;20187;-87
2020/12/24 04:10:50;;;;;;;0.40;0.27;;;7.90;99.90;;;;;;4968391;28;20432;-89
2020/12/24 04:13:16;;;;;;;0.50;0.30;;;7.90;99.90;;;;;;4963589;28;20648;-88
2020/12/24 04:15:42;;;;;;;1.57;0.43;;;7.90;99.90;;;;;;4962847;28;20186;-88
2020/12/24 04:18:07;;;;;;;0.90;0.40;;;8.00;99.90;;;;;;4971437;28;20437;-89
2020/12/24 04:20:33;;;;;;;1.53;0.47;;;8.00;99.90;;;;;;4962070;28;20651;-89
2020/12/24 04:22:59;;;;;;;3.10;1.03;;;8.00;99.90;;;;;;4965185;28;20240;-88
2020/12/24 04:25:24;;;;;;;0.70;0.70;;;8.00;99.90;;;;;;4966604;28;20285;-88
2020/12/24 04:27:50;;;;;;;1.60;0.53;;;8.00;99.90;;;;;;4961979;28;20202;-88
2020/12/24 04:30:15;;;;;;;4.20;0.50;;;8.00;99.90;;;;;;4966927;28;20190;-88
2020/12/24 04:32:41;;;;;;;0.93;0.50;;;8.00;99.90;;;;;;4959221;28;20225;-88
2020/12/24 04:35:07;;;;;;;0.87;0.30;;;8.00;99.90;;;;;;4964392;28;20244;-88
2020/12/24 04:37:32;;;;;;;0.70;0.50;;;8.00;99.90;;;;;;4966161;28;20198;-88
2020/12/24 04:39:58;;;;;;;0.70;0.40;;;7.80;99.90;;;;;;4960967;28;20190;-87
2020/12/24 04:42:24;;;;;;;0.63;0.30;;;7.80;99.90;;;;;;4965360;28;20214;-88
2020/12/24 04:44:50;;;;;;;1.73;0.30;;;7.80;99.90;;;;;;4966628;28;20183;-89
2020/12/24 04:47:19;;;;;;;0.50;0.40;;;7.90;99.90;;;;;;4960257;28;20183;-88
2020/12/24 04:49:46;;;;;;;0.30;0.20;;;7.90;99.90;;;;;;4962390;28;20480;-89
2020/12/24 04:52:15;;;;;;;1.60;0.20;;;7.90;99.90;;;;;;4972485;28;20796;-89
2020/12/24 04:54:41;;;;;;;0.40;0.20;;;7.90;99.90;;;;;;4965085;28;20651;-88
2020/12/24 04:57:08;;;;;;;0.50;0.40;;;7.90;99.90;;;;;;4964704;28;20473;-88
2020/12/24 04:59:38;;;;;;;0.80;0.57;;;7.90;99.90;;;;;;4969423;28;20445;-87
2020/12/24 05:02:05;;;;;;;0.97;0.20;;;7.80;99.90;;;;;;4965655;28;20521;-88
2020/12/24 05:04:33;;;;;;;0.50;0.33;;;7.70;99.90;;;;;;4963429;28;20883;-88
2020/12/24 05:07:08;;;;;;;0.47;0.37;;;7.70;99.90;;;;;;4959220;28;20507;-89
2020/12/24 05:09:35;;;;;;;0.30;0.30;;;7.60;99.90;;;;;;4967027;28;20460;-88
2020/12/24 05:12:01;;;;;;;0.83;0.60;;;7.60;99.90;;;;;;4968859;28;20445;-88
2020/12/24 05:14:29;;;;;;;0.30;0.30;;;7.50;99.90;;;;;;4965354;28;20566;-89
2020/12/24 05:17:02;;;;;;;0.53;0.20;;;7.50;99.90;;;;;;4965219;28;21756;-88
2020/12/24 05:19:32;;;;;;;3.70;0.40;;;7.50;99.90;;;;;;4968919;28;20939;-88
2020/12/24 05:21:58;;;;;;;0.40;0.33;;;7.50;99.90;;;;;;4980356;28;20485;-87
2020/12/24 05:24:33;;;;;;;0.40;0.37;;;7.50;99.90;;;;;;4962510;28;20500;-88
2020/12/24 05:27:10;;;;;;;1.50;0.50;;;7.40;99.90;;;;;;4962277;28;20457;-87
2020/12/24 05:29:38;;;;;;;0.83;0.30;;;7.40;99.90;;;;;;4967561;28;20960;-87
2020/12/24 05:32:04;;;;;;;2.53;0.40;;;7.50;99.90;;;;;;4963823;28;20544;-88
2020/12/24 05:34:30;;;;;;;0.30;0.30;;;7.50;99.90;;;;;;4963075;28;20441;-87
2020/12/24 05:37:16;;;;;;;1.70;0.57;;;7.60;99.90;;;;;;4967486;28;20460;-87
2020/12/24 05:39:47;;;;;;;1.37;0.50;;;7.70;99.90;;;;;;4959441;28;20230;-88
2020/12/24 05:42:13;;;;;;;2.43;0.30;;;7.70;99.90;;;;;;4961321;28;21041;-87
2020/12/24 05:44:39;;;;;;;1.80;0.40;;;7.70;99.90;;;;;;4958513;28;20537;-87
2020/12/24 05:47:06;;;;;;;1.30;0.80;;;7.80;99.90;;;;;;4965469;28;20455;-87
2020/12/24 05:49:34;;;;;;;1.70;0.50;;;7.70;99.90;;;;;;4979617;28;20434;-87
2020/12/24 05:52:05;;;;;;;1.77;0.50;;;7.70;99.90;;;;;;4962509;28;20484;-89
2020/12/24 05:54:33;;;;;;;1.90;0.40;;;7.70;99.90;;;;;;4963161;28;20484;-89
2020/12/24 05:57:00;;;;;;;1.70;0.90;;;7.60;99.90;;;;;;4967468;28;20493;-89
2020/12/24 05:59:27;;;;;;;1.60;0.40;;;7.50;99.90;;;;;;4964487;28;20426;-90
2020/12/24 06:02:05;;;;;;;1.00;0.40;;;7.40;99.90;;;;;;4963577;28;21217;-88
2020/12/24 06:04:46;;;;;;;1.43;0.63;;;7.40;99.90;;;;;;4959075;28;20854;-88
2020/12/24 06:07:18;;;;;;;0.93;0.90;;;7.40;99.90;;;;;;4964754;28;20443;-88
2020/12/24 06:09:45;;;;;;;3.00;1.60;;;7.40;99.90;;;;;;4960485;28;20451;-89
2020/12/24 06:12:21;;;;;;;0.77;0.60;;;7.40;99.90;;;;;;4977987;28;20950;-89
2020/12/24 06:14:51;;;;;;;2.10;0.53;;;7.50;99.90;;;;;;4968557;28;20429;-87
2020/12/24 06:17:24;;;;;;;1.90;0.30;;;7.60;99.90;;;;;;4966804;28;20791;-88
2020/12/24 06:19:51;;;;;;;2.20;0.70;;;7.60;99.90;;;;;;4961103;28;20548;-87
2020/12/24 06:22:22;;;;;;;1.67;0.60;;;7.70;99.90;;;;;;4961878;28;20478;-89
2020/12/24 06:24:59;;;;;;;2.13;0.73;;;7.70;99.90;;;;;;4965384;28;20496;-88
2020/12/24 06:27:33;;;;;;;0.73;0.60;;;7.70;99.90;;;;;;4965005;28;20443;-88
2020/12/24 06:30:03;;;;;;;2.60;0.60;;;7.70;99.90;;;;;;4954851;28;20554;-88
2020/12/24 06:32:33;;;;;;;1.00;0.70;;;7.80;99.90;;;;;;4962350;28;20438;-88
2020/12/24 06:34:59;;;;;;;1.50;0.60;;;7.80;99.90;;;;;;4943021;28;21502;-89
2020/12/24 06:37:25;;;;;;;3.37;1.00;;;7.80;99.90;;;;;;4961807;28;20437;-88
2020/12/24 06:39:52;;;;;;;2.10;1.10;;;7.80;99.90;;;;;;4957792;28;20588;-90
2020/12/24 06:42:38;;;;;;;2.40;0.90;;;7.90;99.90;;;;;;4963603;28;20221;-89
2020/12/24 06:45:05;;;;;;;1.17;0.50;;;7.90;99.90;;;;;;4963773;28;20434;-90
2020/12/24 06:47:31;;;;;;;3.03;0.70;;;7.80;99.90;;;;;;4962543;28;20446;-88
2020/12/24 06:49:57;;;;;;;1.33;0.70;;;7.80;99.90;;;;;;4960380;28;20821;-89
2020/12/24 06:52:30;;;;;;;1.53;0.90;;;7.80;99.90;;;;;;4968106;28;20521;-89
2020/12/24 06:55:16;;;;;;;2.77;0.70;;;7.80;99.90;;;;;;4962972;28;20182;-88
2020/12/24 06:57:43;;;;;;;0.87;0.60;;;7.80;99.90;;;;;;4957512;28;20463;-88
2020/12/24 07:00:20;;;;;;;1.80;0.67;;;7.70;99.90;;;;;;4967305;28;20460;-88
2020/12/24 07:02:50;;;;;;;2.40;0.97;;;7.70;99.90;;;;;;4964806;28;20444;-87
2020/12/24 07:05:40;;;;;;;3.00;0.83;;;7.70;99.90;;;;;;4963717;28;20456;-87
2020/12/24 07:08:10;;;;;;;3.73;0.73;;;7.70;99.90;;;;;;4958452;28;20426;-88
2020/12/24 07:10:49;;;;;;;0.53;0.53;;;7.70;99.90;;;;;;4961363;28;20441;-88
2020/12/24 07:13:38;;;;;;;1.00;0.40;;;7.80;99.90;;;;;;4956314;28;20442;-87
2020/12/24 07:16:08;;;;;;;1.00;0.47;;;7.90;99.90;;;;;;4964458;28;20975;-88
2020/12/24 07:18:36;;;;;;;2.60;1.30;;;7.90;99.90;;;;;;4955046;28;20941;-88
2020/12/24 07:21:04;;;;;;;2.10;0.80;;;7.90;99.90;;;;;;4964452;28;20704;-85
2020/12/24 07:23:32;;;;;;;4.37;1.03;;;7.90;99.90;;;;;;4963843;28;21014;-89
2020/12/24 07:26:03;;;;;;;2.60;0.83;;;8.00;99.90;;;;;;4964031;28;20537;-89
2020/12/24 07:28:30;;;;;;;4.10;0.90;;;7.90;99.90;;;;;;4966028;28;20453;-90
2020/12/24 07:31:01;;;;;;;2.20;0.80;;;7.90;99.90;;;;;;4961940;28;20446;-89
2020/12/24 07:33:27;;;;;;;3.17;1.07;;;7.90;99.90;;;;;;4950816;28;20445;-90
2020/12/24 07:35:54;;;;;;;2.87;0.90;;;7.90;99.90;;;;;;4955287;28;20557;-90
2020/12/24 07:38:21;;;;;;;1.90;0.70;;;7.80;99.90;;;;;;4956944;28;20444;-90
2020/12/24 07:40:47;;;;;;;2.37;1.20;;;7.80;99.90;;;;;;4953596;28;20884;-89
2020/12/24 07:43:13;;;;;;;1.13;0.73;;;7.80;99.90;;;;;;4958526;28;20529;-90
2020/12/24 07:45:40;;;;;;;2.07;1.03;;;7.80;99.90;;;;;;4952270;28;20453;-91
2020/12/24 07:48:28;;;;;;;3.03;0.93;;;7.80;99.90;;;;;;4957620;28;20481;-89
2020/12/24 07:50:54;;;;;;;3.10;0.80;;;7.90;99.90;;;;;;4961174;28;20986;-90
2020/12/24 07:53:26;;;;;;;2.93;0.83;;;8.00;99.90;;;;;;4959520;28;20425;-89
2020/12/24 07:55:52;;;;;;;1.13;0.80;;;8.00;99.90;;;;;;4962476;28;20202;-87
2020/12/24 07:58:19;;;;;;;2.03;0.80;;;8.00;99.90;;;;;;4951471;28;20453;-88
2020/12/24 08:00:47;;;;;;;3.73;0.93;;;8.00;99.90;;;;;;4957273;28;20503;-87
2020/12/24 08:03:18;;;;;;;6.60;1.03;;;8.00;99.90;;;;;;4955140;28;20533;-87
2020/12/24 08:05:46;;;;;;;3.23;0.93;;;8.10;99.90;;;;;;4956223;28;20473;-87
2020/12/24 08:08:13;;;;;;;2.17;1.10;;;8.20;99.90;;;;;;4960069;28;20445;-87
2020/12/24 08:10:42;;;;;;;1.93;0.70;;;8.20;99.90;;;;;;4960228;28;20453;-88
2020/12/24 08:13:09;;;;;;;1.77;0.93;;;8.20;99.90;;;;;;4959078;28;21024;-86
2020/12/24 08:15:40;;;;;;;1.20;0.57;;;8.20;99.90;;;;;;4965500;28;21044;-88
2020/12/24 08:18:09;;;;;;;3.80;1.03;;;8.20;99.90;;;;;;4961736;28;20532;-89
2020/12/24 08:21:17;;;;;;;3.37;0.97;;;8.30;99.90;;;;;;4958532;28;20464;-89
2020/12/24 08:23:52;;;;;;;2.20;0.50;;;8.30;99.90;;;;;;4962240;28;20445;-91
2020/12/24 08:26:19;;;;;;;1.67;0.67;;;8.40;99.90;;;;;;4953600;28;20577;-91
2020/12/24 08:28:56;;;;;;;3.50;2.73;;;8.50;99.90;;;;;;4954543;28;21938;-89
2020/12/24 08:31:26;;;;;;;2.67;1.00;;;8.50;99.90;;;;;;4955971;28;20538;-89
2020/12/24 08:33:53;;;;;;;4.30;1.30;;;8.50;99.90;;;;;;4961266;28;20563;-88
2020/12/24 08:36:27;;;;;;;1.00;0.50;;;8.60;99.90;;;;;;4954565;28;20654;-92
2020/12/24 08:39:10;;;;;;;1.90;0.70;;;8.60;99.90;;;;;;4961492;28;20938;-91
2020/12/24 08:41:41;;;;;;;2.20;1.00;;;8.50;99.90;;;;;;4962246;28;20482;-91
2020/12/24 08:44:07;;;;;;;0.60;0.57;;;8.60;99.90;;;;;;4965190;28;20792;-93
2020/12/24 08:46:33;;;;;;;1.07;0.43;;;8.40;99.90;;;;;;4957942;28;20441;-89
2020/12/24 08:49:22;;;;;;;1.07;0.53;;;8.30;99.90;;;;;;4960921;28;20429;-86
2020/12/24 08:51:48;;;;;;;1.90;0.53;;;8.20;99.90;;;;;;4956733;28;20801;-85
2020/12/24 08:54:14;;;;;;;4.53;1.17;;;8.10;99.90;;;;;;4957989;28;20484;-86
2020/12/24 08:56:43;;;;;;;1.80;0.70;;;8.10;99.90;;;;;;4957000;28;21033;-86
2020/12/24 08:59:15;;;;;;;2.20;0.50;;;8.00;99.90;;;;;;4960787;28;20194;-87
2020/12/24 09:01:43;;;;;;;0.67;0.47;;;7.90;99.90;;;;;;4959538;28;20477;-82
2020/12/24 09:04:17;;;;;;;1.93;0.70;;;7.90;99.90;;;;;;4959902;28;20437;-86
2020/12/24 09:06:44;;;;;;;1.10;0.70;;;7.90;99.90;;;;;;4956115;28;20493;-83
2020/12/24 09:09:27;;;;;;;1.43;0.70;;;7.90;99.90;;;;;;4961202;28;20789;-84
2020/12/24 09:11:54;;;;;;;1.23;0.70;;;7.90;99.90;;;;;;4956372;28;20488;-84
2020/12/24 09:14:21;;;;;;;1.60;0.83;;;7.90;99.90;;;;;;4960266;28;20823;-85
2020/12/24 09:17:13;;;;;;;1.10;0.63;;;8.00;99.90;;;;;;4958527;28;20603;-84
2020/12/24 09:19:39;;;;;;;1.50;0.67;;;8.00;99.90;;;;;;4954478;28;20711;-85
2020/12/24 09:22:05;;;;;;;0.60;0.50;;;8.10;99.90;;;;;;4958281;28;21015;-83
2020/12/24 09:24:30;;;;;;;1.57;0.73;;;8.10;99.90;;;;;;4959148;28;20760;-84
2020/12/24 09:26:57;;;;;;;0.80;0.60;;;8.10;99.90;;;;;;4961641;28;20293;-83
2020/12/24 09:29:25;;;;;;;4.27;0.80;;;8.20;99.90;;;;;;4962734;28;20288;-83
2020/12/24 09:31:58;;;;;;;1.73;0.60;;;8.30;99.90;;;;;;4959481;28;20458;-84
2020/12/24 09:34:28;;;;;;;0.80;0.50;;;8.30;99.90;;;;;;4963652;28;20448;-85
2020/12/24 09:36:54;;;;;;;1.00;0.60;;;8.30;99.90;;;;;;4956845;28;20556;-83
2020/12/24 09:39:20;;;;;;;1.47;0.43;;;8.30;99.90;;;;;;4952633;28;20439;-83
2020/12/24 09:41:48;;;;;;;2.30;0.50;;;8.30;99.90;;;;;;4957593;28;20834;-84
2020/12/24 09:44:14;;;;;;;0.57;0.37;;;8.30;99.90;;;;;;4955009;28;20207;-85
2020/12/24 09:46:41;;;;;;;1.60;0.50;;;8.30;99.90;;;;;;4952059;28;20450;-85
2020/12/24 09:49:07;;;;;;;2.67;0.53;;;8.30;99.90;;;;;;4961357;28;20448;-86
2020/12/24 09:51:35;;;;;;;0.83;0.50;;;8.20;99.90;;;;;;4949709;28;20535;-84
2020/12/24 09:54:02;;;;;;;0.73;0.30;;;8.20;99.90;;;;;;4956610;28;20548;-86
2020/12/24 09:56:27;;;;;;;0.50;0.47;;;8.20;99.90;;;;;;4956001;28;20540;-83
2020/12/24 09:58:53;;;;;;;0.50;0.30;;;8.20;99.90;;;;;;4955348;28;20473;-85
2020/12/24 10:01:19;;;;;;;0.63;0.60;;;8.20;99.90;;;;;;4956656;28;20732;-85
2020/12/24 10:03:47;;;;;;;1.77;0.50;;;8.10;99.90;;;;;;4954291;28;20190;-84
2020/12/24 10:06:16;;;;;;;0.80;0.40;;;8.20;99.90;;;;;;4952232;28;20191;-85
2020/12/24 10:08:42;;;;;;;1.27;0.40;;;8.20;99.90;;;;;;4959905;28;20446;-85
2020/12/24 10:11:17;;;;;;;0.83;0.30;;;8.20;99.90;;;;;;4954676;28;21615;-84
2020/12/24 10:13:43;;;;;;;0.57;0.30;;;8.20;99.90;;;;;;4954373;28;20205;-85
2020/12/24 10:16:11;;;;;;;2.00;0.63;;;8.20;99.90;;;;;;4965739;28;20430;-85
2020/12/24 10:18:37;;;;;;;1.00;0.50;;;8.20;99.90;;;;;;4956200;28;21046;-84
2020/12/24 10:21:08;;;;;;;1.03;0.50;;;8.20;99.90;;;;;;4951888;28;20690;-84
2020/12/24 10:23:36;;;;;;;2.10;0.63;;;8.20;99.90;;;;;;4954679;28;20195;-86
2020/12/24 10:26:02;;;;;;;1.00;0.40;;;8.20;99.90;;;;;;4959180;28;20456;-86
2020/12/24 10:28:28;;;;;;;0.77;0.40;;;8.10;99.90;;;;;;4956887;28;20823;-85
2020/12/24 10:30:54;;;;;;;1.40;0.50;;;8.20;99.90;;;;;;4959315;28;20206;-85
2020/12/24 10:33:19;;;;;;;3.00;0.80;;;8.10;99.90;;;;;;4971293;28;20202;-89
2020/12/24 10:35:45;;;;;;;1.50;0.67;;;8.20;99.90;;;;;;4954853;28;20231;-90
2020/12/24 10:38:10;;;;;;;1.43;0.50;;;8.20;99.90;;;;;;4954246;28;20245;-91
2020/12/24 10:40:36;;;;;;;0.77;0.47;;;8.30;99.90;;;;;;4959065;28;20675;-92
2020/12/24 10:43:03;;;;;;;0.87;0.50;;;8.20;99.90;;;;;;4957493;28;21827;-85
2020/12/24 10:45:29;;;;;;;2.00;0.70;;;8.20;99.90;;;;;;4953352;28;20202;-84
2020/12/24 10:47:57;;;;;;;2.33;0.60;;;8.20;99.90;;;;;;4954905;28;21044;-86
2020/12/24 10:50:25;;;;;;;1.53;0.70;;;8.30;99.90;;;;;;4959566;28;20316;-82
2020/12/24 10:52:51;;;;;;;0.80;0.53;;;8.20;99.90;;;;;;4956256;28;20517;-84
2020/12/24 10:55:17;;;;;;;0.90;0.63;;;8.20;99.90;;;;;;4957062;28;20495;-86
2020/12/24 10:57:45;;;;;;;2.60;0.53;;;8.40;99.90;;;;;;4959399;28;20270;-84
2020/12/24 11:00:11;;;;;;;0.90;0.53;;;8.50;99.90;;;;;;4955403;28;20484;-85
2020/12/24 11:02:37;;;;;;;0.50;0.50;;;8.50;99.90;;;;;;4952024;28;20495;-87
2020/12/24 11:05:04;;;;;;;2.93;0.80;;;8.60;99.90;;;;;;4956176;28;20529;-86
2020/12/24 11:07:30;;;;;;;1.17;0.60;;;8.50;99.90;;;;;;4955287;28;20443;-85
2020/12/24 11:09:55;;;;;;;0.30;0.30;;;8.50;99.90;;;;;;4957723;28;20441;-85
2020/12/24 11:12:21;;;;;;;0.50;0.50;;;8.50;99.90;;;;;;4955514;28;20246;-84
2020/12/24 11:14:46;;;;;;;1.07;0.73;;;8.50;99.90;;;;;;4955056;28;20516;-86
2020/12/24 11:17:21;;;;;;;0.93;0.50;;;8.50;99.90;;;;;;4959697;28;20301;-88
2020/12/24 11:19:47;;;;;;;1.07;0.50;;;8.60;99.90;;;;;;4955609;28;20189;-85
2020/12/24 11:22:15;;;;;;;0.80;0.60;;;8.60;99.90;;;;;;4961866;28;20559;-84
2020/12/24 11:24:41;;;;;;;0.93;0.50;;;8.70;99.90;;;;;;4956646;28;20304;-84
2020/12/24 11:27:07;;;;;;;4.43;0.60;;;8.80;99.90;;;;;;4956726;28;20972;-84
2020/12/24 11:29:33;;;;;;;2.00;0.80;;;8.80;99.90;;;;;;4949091;28;20192;-84
2020/12/24 11:32:09;;;;;;;0.40;0.30;;;8.80;99.90;;;;;;4956951;28;20456;-84
2020/12/24 11:34:35;;;;;;;1.03;0.50;;;8.70;99.90;;;;;;4961215;28;20252;-84
2020/12/24 11:37:01;;;;;;;1.77;0.77;;;8.70;99.90;;;;;;4954734;28;20973;-84
2020/12/24 11:39:27;;;;;;;1.80;0.93;;;8.70;99.90;;;;;;4954496;28;20182;-83
2020/12/24 11:41:52;;;;;;;1.40;0.70;;;8.70;99.90;;;;;;4956828;28;20316;-85
2020/12/24 11:44:19;;;;;;;1.47;0.50;;;8.70;99.90;;;;;;4951293;28;21035;-84
2020/12/24 11:46:47;;;;;;;0.50;0.47;;;8.60;99.90;;;;;;4974730;28;20556;-84
2020/12/24 11:49:13;;;;;;;0.77;0.50;;;8.60;99.90;;;;;;4959718;28;20435;-85
2020/12/24 11:51:38;;;;;;;0.30;0.30;;;8.50;99.90;;;;;;4952360;28;20844;-84
2020/12/24 11:54:04;;;;;;;1.03;0.60;;;8.60;99.90;;;;;;4954878;28;20387;-84
2020/12/24 11:56:30;;;;;;;2.33;0.53;;;8.60;99.90;;;;;;4955937;28;20214;-86
2020/12/24 11:59:03;;;;;;;1.03;0.40;;;8.50;99.90;;;;;;4959793;28;20195;-87
2020/12/24 12:01:29;;;;;;;1.73;0.60;;;8.50;99.90;;;;;;4963228;28;20994;-86
2020/12/24 12:03:57;;;;;;;1.23;0.47;;;8.40;99.90;;;;;;4959531;28;20322;-87
2020/12/24 12:06:25;;;;;;;0.87;0.40;;;8.40;99.90;;;;;;4959115;28;20464;-94
2020/12/24 12:08:53;;;;;;;1.17;0.50;;;8.40;99.90;;;;;;4958895;28;20574;-91
2020/12/24 12:11:19;;;;;;;1.50;1.23;;;8.60;99.90;;;;;;4957805;28;20442;-90
2020/12/24 12:13:51;;;;;;;1.30;1.00;;;8.60;99.90;;;;;;4958049;28;20509;-91
2020/12/24 12:19:08;;;;;;;1.17;0.60;;;9.40;99.90;;;;;;4960822;28;20452;-93
2020/12/24 12:21:38;;;;;;;0.40;0.40;;;9.40;99.90;;;;;;4955883;28;21029;-90
2020/12/24 12:24:28;;;;;;;1.80;1.07;;;9.50;99.90;;;;;;4956980;28;20444;-89
2020/12/24 12:29:33;;;;;;;0.87;0.40;;;11.20;99.90;;;;;;4959834;28;20532;-93
2020/12/24 12:32:01;;;;;;;0.73;0.60;;;11.40;99.60;;;;;;4959578;28;20453;-92
2020/12/24 12:34:29;;;;;;;2.53;0.70;;;12.10;98.30;;;;;;4964338;28;20453;-93
2020/12/24 12:36:57;;;;;;;0.97;0.60;;;12.60;97.10;;;;;;4965087;28;20453;-94
2020/12/24 12:39:43;;;;;;;0.77;0.73;;;13.60;95.40;;;;;;4970546;28;20434;-95
2020/12/24 12:42:17;;;;;;;0.50;0.40;;;13.80;94.50;;;;;;4984694;28;20221;-96
2020/12/24 12:44:45;;;;;;;0.90;0.43;;;14.10;93.60;;;;;;4965263;28;20445;-93
2020/12/24 12:47:12;;;;;;;1.03;0.47;;;13.50;94.70;;;;;;4958051;28;20454;-94
2020/12/24 12:49:41;;;;;;;0.87;0.40;;;12.80;94.50;;;;;;4960139;28;21049;-87
2020/12/24 12:52:20;;;;;;;0.30;0.30;;;13.10;95.40;;;;;;4975011;28;20465;-95
2020/12/24 12:54:46;;;;;;;0.60;0.40;;;13.50;94.60;;;;;;4980217;28;20477;-94
2020/12/24 12:57:15;;;;;;;0.60;0.40;;;13.00;95.70;;;;;;4971304;28;20442;-88
2020/12/24 12:59:41;;;;;;;0.83;0.47;;;13.60;94.40;;;;;;4956808;28;20187;-87
2020/12/24 13:02:06;;;;;;;2.83;0.67;;;13.20;94.50;;;;;;4958518;28;20511;-89
2020/12/24 13:04:32;;;;;;;0.70;0.43;;;13.10;94.70;;;;;;4959905;28;20588;-90
2020/12/24 13:06:57;;;;;;;1.43;0.50;;;12.60;96.50;;;;;;4955678;28;20439;-87